Granger, Wyoming
Current Conditions -  °F | °C
As of 2:15 PM on Saturday 22 Nov 2014 (Local Time) from KFBR Reporting Station
Broken Clouds Broken Clouds  
Wind Chill: 34°   Ceiling: 6000
Heat Index: 44°   Visibility: 10mi
Dew Point: 35°   Wind: 24mph
Humidity: 72%   Direction: 240°WSW
Pressure: 29.7"   Gusts: 39mph
Location:  41.59°N, 109.97°W
Report Text: KFBR 222115Z AUTO 24021G34KT 10SM SCT026 SCT034 BKN060 06/02 A2970 RMK AO2 T00640016
Loading
Personal Weather Stations






























Interactive Weather Map New forecast layout! Learn more

10-Day Weather Forecast

Advertisements
Track Severe Weather on mobile